createdAt,value
2018-12-22T00:04:06.245Z,11.03
2018-12-22T00:09:11.778Z,6.67
2018-12-22T00:14:17.472Z,8.50
2018-12-22T00:19:23.300Z,8.47
2018-12-22T00:24:28.634Z,17.20
2018-12-22T00:29:33.942Z,12.57
2018-12-22T00:34:39.668Z,7.97
2018-12-22T00:39:45.773Z,13.57
2018-12-22T00:44:51.259Z,6.07
2018-12-22T00:49:56.537Z,6.10
2018-12-22T00:55:02.039Z,4.70
2018-12-22T01:00:09.178Z,6.23
2018-12-22T01:05:14.524Z,7.70
2018-12-22T01:10:19.928Z,6.17
2018-12-22T01:15:25.879Z,7.13
2018-12-22T01:20:31.214Z,11.63
2018-12-22T01:25:36.902Z,10.00
2018-12-22T01:30:42.885Z,8.70
2018-12-22T01:35:48.253Z,7.50
2018-12-22T01:40:53.769Z,12.73
2018-12-22T01:45:59.181Z,9.37
2018-12-22T01:51:04.498Z,10.33
2018-12-22T01:56:10.105Z,10.87
2018-12-22T02:01:15.463Z,9.47
2018-12-22T02:06:20.711Z,6.87
2018-12-22T02:11:26.066Z,4.27
2018-12-22T02:16:31.444Z,11.73
2018-12-22T02:21:37.202Z,10.63
2018-12-22T02:26:42.396Z,1.90
2018-12-22T02:31:47.709Z,7.20
2018-12-22T02:36:53.078Z,4.40
2018-12-22T02:41:58.768Z,9.00
2018-12-22T02:47:04.429Z,9.20
2018-12-22T02:52:10.271Z,6.27
2018-12-22T02:57:16.222Z,13.10
2018-12-22T03:02:21.465Z,4.40
2018-12-22T03:07:26.879Z,13.00
2018-12-22T03:12:32.561Z,8.60
2018-12-22T03:17:38.510Z,12.30
2018-12-22T03:22:43.787Z,10.77
2018-12-22T03:27:49.126Z,10.87
2018-12-22T03:32:54.511Z,9.37
2018-12-22T03:37:59.997Z,13.60
2018-12-22T03:43:05.293Z,6.60
2018-12-22T03:48:10.796Z,8.17
2018-12-22T03:53:16.146Z,19.70
2018-12-22T03:58:21.620Z,13.33
2018-12-22T04:03:26.997Z,7.33
2018-12-22T04:08:32.391Z,10.80
2018-12-22T04:13:37.878Z,29.77
2018-12-22T04:18:43.261Z,8.47
2018-12-22T04:24:19.561Z,11.97
2018-12-22T04:29:33.630Z,6.10
2018-12-22T04:34:32.093Z,12.47
2018-12-22T04:39:37.411Z,6.87
2018-12-22T04:44:43.081Z,13.17
2018-12-22T04:49:48.378Z,13.90
2018-12-22T04:54:54.010Z,6.83
2018-12-22T04:59:59.341Z,8.13
2018-12-22T05:05:05.170Z,8.33
2018-12-22T05:10:10.783Z,15.80
2018-12-22T05:15:16.316Z,15.03
2018-12-22T05:20:23.139Z,4.07
2018-12-22T05:25:28.391Z,7.50
2018-12-22T05:30:34.139Z,11.70
2018-12-22T05:35:39.594Z,5.37
2018-12-22T05:40:45.196Z,11.93
2018-12-22T05:45:50.623Z,5.77
2018-12-22T05:50:56.088Z,7.50
2018-12-22T05:56:01.661Z,12.93
2018-12-22T06:01:07.078Z,13.67
2018-12-22T06:06:13.062Z,11.80
2018-12-22T06:11:18.409Z,10.03
2018-12-22T06:16:23.661Z,17.00
2018-12-22T06:21:29.047Z,12.20
2018-12-22T06:26:35.467Z,11.90
2018-12-22T06:31:40.803Z,20.50
2018-12-22T06:36:46.104Z,7.57
2018-12-22T06:41:52.003Z,7.73
2018-12-22T06:46:57.463Z,6.60
2018-12-22T06:52:03.057Z,7.63
2018-12-22T06:57:08.668Z,7.73
2018-12-22T07:02:15.944Z,9.13
2018-12-22T07:07:21.320Z,0.90
2018-12-22T07:12:27.276Z,4.67
2018-12-22T07:17:32.665Z,8.63
2018-12-22T07:22:38.139Z,7.60
2018-12-22T07:27:43.579Z,2.87
2018-12-22T07:32:56.676Z,2.57
2018-12-22T07:37:56.989Z,0.73
2018-12-22T07:43:02.347Z,4.73
2018-12-22T07:48:07.725Z,1.30
2018-12-22T07:53:13.038Z,0.83
2018-12-22T07:58:18.357Z,3.37
2018-12-22T08:03:23.949Z,3.73
2018-12-22T08:08:29.417Z,1.17
2018-12-22T08:13:35.468Z,3.37
2018-12-22T08:18:41.753Z,1.47
2018-12-22T08:23:47.384Z,2.20
2018-12-22T08:28:52.958Z,1.10
2018-12-22T08:33:59.069Z,0.80
2018-12-22T08:39:07.288Z,1.33
2018-12-22T08:44:13.293Z,1.17
2018-12-22T08:49:19.357Z,4.67
2018-12-22T08:54:25.615Z,1.27
2018-12-22T08:59:31.130Z,1.90
2018-12-22T09:04:36.751Z,1.33
2018-12-22T09:09:43.942Z,3.83
2018-12-22T09:14:50.222Z,0.70
2018-12-22T09:19:55.859Z,1.37
2018-12-22T09:25:01.441Z,1.33
2018-12-22T09:30:10.718Z,0.60
2018-12-22T09:35:16.189Z,1.60
2018-12-22T09:40:25.610Z,0.73
2018-12-22T09:45:33.433Z,1.53
2018-12-22T09:50:39.154Z,0.70
2018-12-22T09:55:45.112Z,0.30
2018-12-22T10:00:51.813Z,0.30
2018-12-22T10:05:59.269Z,0.30
2018-12-22T10:11:06.790Z,1.23
2018-12-22T10:16:12.624Z,0.97
2018-12-22T10:21:18.525Z,0.33
2018-12-22T10:26:24.517Z,0.27
2018-12-22T10:31:31.580Z,2.17
2018-12-22T10:36:39.766Z,0.70
2018-12-22T10:41:45.616Z,0.27
2018-12-22T10:46:51.296Z,0.40
2018-12-22T10:51:57.804Z,0.40
2018-12-22T10:57:04.227Z,2.40
2018-12-22T11:02:10.684Z,0.40
2018-12-22T11:07:18.660Z,0.53
2018-12-22T11:12:25.070Z,0.70
2018-12-22T11:17:31.492Z,0.30
2018-12-22T11:22:39.732Z,1.50
2018-12-22T11:27:46.013Z,0.40
2018-12-22T11:32:52.143Z,0.53
2018-12-22T11:37:58.280Z,0.40
2018-12-22T11:43:04.765Z,2.63
2018-12-22T11:48:36.455Z,1.03
2018-12-22T11:53:42.252Z,0.70
2018-12-22T11:58:47.765Z,0.50
2018-12-22T12:03:53.509Z,3.30
2018-12-22T12:09:01.165Z,0.40
2018-12-22T12:14:07.895Z,0.50
2018-12-22T12:19:17.318Z,0.70
2018-12-22T12:24:22.726Z,1.17
2018-12-22T12:29:28.222Z,0.63
2018-12-22T12:34:36.832Z,0.90
2018-12-22T12:39:43.074Z,0.50
2018-12-22T12:44:48.644Z,0.70
2018-12-22T12:49:54.361Z,0.67
2018-12-22T12:55:00.113Z,1.43
2018-12-22T13:00:37.292Z,0.80
2018-12-22T13:05:43.028Z,2.43
2018-12-22T13:10:49.161Z,0.60
2018-12-22T13:15:54.898Z,0.57
2018-12-22T13:21:00.845Z,1.80
2018-12-22T13:26:07.313Z,0.90
2018-12-22T13:31:13.596Z,0.90
2018-12-22T13:36:20.318Z,1.23
2018-12-22T13:41:26.096Z,1.30
2018-12-22T13:46:31.891Z,1.47
2018-12-22T13:51:39.153Z,0.93
2018-12-22T13:56:45.119Z,3.03
2018-12-22T14:01:58.984Z,2.33
2018-12-22T14:07:07.645Z,0.93
2018-12-22T14:12:13.314Z,1.07
2018-12-22T14:17:21.430Z,0.70
2018-12-22T14:22:27.522Z,2.87
2018-12-22T14:27:34.057Z,1.73
2018-12-22T14:32:39.806Z,1.90
2018-12-22T14:37:46.268Z,0.90
2018-12-22T14:42:52.509Z,2.77
2018-12-22T14:47:58.823Z,0.77
2018-12-22T14:53:04.224Z,2.10
2018-12-22T14:58:14.140Z,1.97
2018-12-22T15:03:19.725Z,0.70
2018-12-22T15:08:25.068Z,2.60
2018-12-22T15:13:31.018Z,7.40
2018-12-22T15:18:36.780Z,2.20
2018-12-22T15:23:42.356Z,1.70
2018-12-22T15:28:49.362Z,3.30
2018-12-22T15:33:55.923Z,2.20
2018-12-22T15:39:01.633Z,1.67
2018-12-22T15:44:08.401Z,1.47
2018-12-22T15:49:15.169Z,0.90
2018-12-22T15:54:20.763Z,1.23
2018-12-22T15:59:26.619Z,2.40
2018-12-22T16:04:32.087Z,2.50
2018-12-22T16:09:37.804Z,1.30
2018-12-22T16:14:43.228Z,5.90
2018-12-22T16:19:48.766Z,0.70
2018-12-22T16:24:54.439Z,3.50
2018-12-22T16:30:00.411Z,1.70
2018-12-22T16:35:06.363Z,2.80
2018-12-22T16:40:12.999Z,1.00
2018-12-22T16:45:18.877Z,0.90
2018-12-22T16:50:24.432Z,1.53
2018-12-22T16:55:30.091Z,2.33
2018-12-22T17:00:40.525Z,2.23
2018-12-22T17:05:48.215Z,2.10
2018-12-22T17:10:57.945Z,1.10
2018-12-22T17:16:04.870Z,1.50
2018-12-22T17:21:19.015Z,3.03
2018-12-22T17:26:27.493Z,0.90
2018-12-22T17:31:34.059Z,2.03
2018-12-22T17:36:40.968Z,1.50
2018-12-22T17:41:47.029Z,1.33
2018-12-22T17:46:53.308Z,0.93
2018-12-22T17:52:00.107Z,4.57
2018-12-22T17:57:05.684Z,7.30
2018-12-22T18:02:11.736Z,5.63
2018-12-22T18:07:17.570Z,3.63
2018-12-22T18:12:23.193Z,3.03
2018-12-22T18:17:29.802Z,3.90
2018-12-22T18:22:36.332Z,2.63
2018-12-22T18:27:43.153Z,2.50
2018-12-22T18:32:48.692Z,2.10
2018-12-22T18:37:54.347Z,2.37
2018-12-22T18:43:00.269Z,6.67
2018-12-22T18:48:06.315Z,10.80
2018-12-22T18:53:11.843Z,7.70
2018-12-22T18:58:17.838Z,9.67
2018-12-22T19:03:23.255Z,5.03
2018-12-22T19:08:29.938Z,5.10
2018-12-22T19:13:35.753Z,4.27
2018-12-22T19:18:41.358Z,2.90
2018-12-22T19:23:47.317Z,3.17
2018-12-22T19:28:55.599Z,5.67
2018-12-22T19:34:01.261Z,3.60
2018-12-22T19:39:08.757Z,2.40
2018-12-22T19:44:14.936Z,4.03
2018-12-22T19:49:22.218Z,4.93
2018-12-22T19:54:34.281Z,8.83
2018-12-22T19:59:40.761Z,2.07
2018-12-22T20:04:46.896Z,7.37
2018-12-22T20:09:52.486Z,1.90
2018-12-22T20:14:57.746Z,7.47
2018-12-22T20:20:04.337Z,4.77
2018-12-22T20:25:10.822Z,2.63
2018-12-22T20:30:17.071Z,5.60
2018-12-22T20:35:22.883Z,4.40
2018-12-22T20:40:28.459Z,6.10
2018-12-22T20:45:35.037Z,3.33
2018-12-22T20:50:41.885Z,2.00
2018-12-22T20:55:48.117Z,1.73
2018-12-22T21:00:53.681Z,3.70
2018-12-22T21:06:04.158Z,3.23
2018-12-22T21:11:10.759Z,1.83
2018-12-22T21:16:16.246Z,5.07
2018-12-22T21:21:23.112Z,3.23
2018-12-22T21:26:28.426Z,1.00
2018-12-22T21:31:34.257Z,5.53
2018-12-22T21:36:41.630Z,3.37
2018-12-22T21:41:48.127Z,3.10
2018-12-22T21:46:53.998Z,2.60
2018-12-22T21:52:00.383Z,3.10
2018-12-22T21:57:05.729Z,2.43
2018-12-22T22:02:11.644Z,3.00
2018-12-22T22:07:18.008Z,1.10
2018-12-22T22:12:23.777Z,3.40
2018-12-22T22:17:29.207Z,1.70
2018-12-22T22:22:34.625Z,2.03
2018-12-22T22:27:40.716Z,5.60
2018-12-22T22:32:47.066Z,1.73
2018-12-22T22:37:53.102Z,2.20
2018-12-22T22:42:58.967Z,1.47
2018-12-22T22:48:05.518Z,0.70
2018-12-22T22:53:11.186Z,0.97
2018-12-22T22:58:16.650Z,1.63
2018-12-22T23:03:22.632Z,0.93
2018-12-22T23:08:28.471Z,1.00
2018-12-22T23:13:34.232Z,1.43
2018-12-22T23:18:39.620Z,3.30
2018-12-22T23:23:45.051Z,1.90
2018-12-22T23:28:50.447Z,1.57
2018-12-22T23:33:56.618Z,3.70
2018-12-22T23:39:02.439Z,3.80
2018-12-22T23:44:09.162Z,2.57
2018-12-22T23:49:14.595Z,2.40
2018-12-22T23:54:20.669Z,3.80
2018-12-22T23:59:26.927Z,3.67
